Time;durP1;ratioP1;P1;durP2;ratioP2;P2;SDS_P1;SDS_P2;PMS_P1;PMS_P2;Temp;Humidity;BMP_temperature;BMP_pressure;BME280_temperature;BME280_humidity;BME280_pressure;Samples;Min_cycle;Max_cycle;Signal;HPM_P1;HPM_P2
2021/05/25 00:00:25;;;;;;;7.55;6.15;;;16.00;84.80;;;;;;5010753;28;20044;-58
2021/05/25 00:03:00;;;;;;;8.20;6.20;;;16.00;84.40;;;;;;5011337;28;20022;-58
2021/05/25 00:05:29;;;;;;;7.88;6.38;;;16.00;84.40;;;;;;5015471;28;20029;-58
2021/05/25 00:07:55;;;;;;;8.45;7.07;;;16.00;84.60;;;;;;5013993;28;20040;-58
2021/05/25 00:10:40;;;;;;;10.02;7.20;;;15.90;85.30;;;;;;5015513;28;20029;-58
2021/05/25 00:13:06;;;;;;;8.40;6.95;;;15.80;86.20;;;;;;5015572;28;20034;-57
2021/05/25 00:15:33;;;;;;;10.05;7.72;;;15.70;86.50;;;;;;5015427;28;20112;-58
2021/05/25 00:18:00;;;;;;;9.48;7.50;;;15.70;86.60;;;;;;5014053;28;20092;-58
2021/05/25 00:20:26;;;;;;;8.32;7.53;;;15.80;86.30;;;;;;5015656;28;20041;-59
2021/05/25 00:22:52;;;;;;;10.73;7.32;;;15.90;85.70;;;;;;5014886;28;20026;-57
2021/05/25 00:25:19;;;;;;;9.50;8.45;;;15.90;85.40;;;;;;5015203;28;20076;-57
2021/05/25 00:27:46;;;;;;;9.43;7.88;;;16.10;85.20;;;;;;5014827;28;20384;-57
2021/05/25 00:30:16;;;;;;;7.50;6.80;;;16.10;84.80;;;;;;5015522;28;20022;-58
2021/05/25 00:32:43;;;;;;;10.30;8.13;;;16.20;84.60;;;;;;5014808;28;20396;-58
2021/05/25 00:35:10;;;;;;;8.13;7.18;;;16.20;84.30;;;;;;5015438;28;20464;-59
2021/05/25 00:37:36;;;;;;;10.45;6.32;;;16.30;84.10;;;;;;5014540;28;20575;-58
2021/05/25 00:40:03;;;;;;;7.70;6.45;;;16.20;83.70;;;;;;5015241;28;20036;-59
2021/05/25 00:42:29;;;;;;;6.70;5.82;;;16.20;83.60;;;;;;5013714;28;20034;-58
2021/05/25 00:44:54;;;;;;;7.88;5.72;;;16.20;83.50;;;;;;5014527;28;20037;-58
2021/05/25 00:47:27;;;;;;;8.13;6.28;;;16.20;83.40;;;;;;5034478;28;20080;-58
2021/05/25 00:49:54;;;;;;;6.82;6.13;;;16.20;83.30;;;;;;5016526;28;20128;-57
2021/05/25 00:52:20;;;;;;;7.38;6.40;;;16.30;83.20;;;;;;5034774;28;20037;-57
2021/05/25 00:54:45;;;;;;;7.05;6.35;;;16.30;83.00;;;;;;5034052;28;20025;-58
2021/05/25 00:57:11;;;;;;;8.50;6.15;;;16.40;83.00;;;;;;5017082;28;20051;-57
2021/05/25 00:59:38;;;;;;;8.70;6.70;;;16.40;83.00;;;;;;5034006;28;20479;-56
2021/05/25 01:02:04;;;;;;;7.35;6.65;;;16.40;82.80;;;;;;5034402;28;20475;-59
2021/05/25 01:04:30;;;;;;;6.60;5.85;;;16.40;82.70;;;;;;5016923;28;20025;-58
2021/05/25 01:06:57;;;;;;;7.28;5.97;;;16.40;82.60;;;;;;5034219;28;20463;-57
2021/05/25 01:09:23;;;;;;;7.28;5.53;;;16.40;82.40;;;;;;5016722;28;20033;-58
2021/05/25 01:11:49;;;;;;;5.82;5.00;;;16.50;82.40;;;;;;5034073;28;20036;-57
2021/05/25 01:14:15;;;;;;;6.68;5.47;;;16.50;82.20;;;;;;5016278;28;20065;-55
2021/05/25 01:16:40;;;;;;;6.90;5.20;;;16.50;82.10;;;;;;5033161;28;20495;-61
2021/05/25 01:19:06;;;;;;;5.82;5.20;;;16.50;81.90;;;;;;5016772;28;20026;-59
2021/05/25 01:21:36;;;;;;;7.82;4.70;;;16.50;81.70;;;;;;5033613;28;20033;-55
2021/05/25 01:24:02;;;;;;;7.53;4.57;;;16.50;81.70;;;;;;5034025;28;20468;-60
2021/05/25 01:26:28;;;;;;;6.20;4.70;;;16.50;81.50;;;;;;5034255;28;20108;-60
2021/05/25 01:28:54;;;;;;;6.45;4.78;;;16.60;81.40;;;;;;5033483;28;20096;-59
2021/05/25 01:31:20;;;;;;;6.65;4.97;;;16.50;81.20;;;;;;5033929;28;20021;-59
2021/05/25 01:33:46;;;;;;;5.90;4.57;;;16.50;81.30;;;;;;5015702;28;20121;-59
2021/05/25 01:36:14;;;;;;;4.25;3.42;;;16.50;81.50;;;;;;5034247;28;20033;-60
2021/05/25 01:38:40;;;;;;;5.85;4.00;;;16.50;81.00;;;;;;5033202;28;20026;-60
2021/05/25 01:41:08;;;;;;;5.82;4.20;;;16.50;80.90;;;;;;5033736;28;20098;-58
2021/05/25 01:43:35;;;;;;;4.90;4.38;;;16.50;80.60;;;;;;5033108;28;20471;-58
2021/05/25 01:46:02;;;;;;;6.25;4.72;;;16.50;80.90;;;;;;5015803;28;20483;-58
2021/05/25 01:48:28;;;;;;;4.45;3.50;;;16.60;81.10;;;;;;5033654;28;20119;-59
2021/05/25 01:50:54;;;;;;;9.32;3.65;;;16.50;81.00;;;;;;5033182;28;20026;-60
2021/05/25 01:53:24;;;;;;;4.13;3.72;;;16.60;80.90;;;;;;5016011;28;20061;-60
2021/05/25 01:55:55;;;;;;;4.57;3.03;;;16.50;81.00;;;;;;5032784;28;20032;-59
2021/05/25 01:58:32;;;;;;;5.60;3.33;;;16.50;81.00;;;;;;5016001;28;20036;-60
2021/05/25 02:01:07;;;;;;;6.65;3.15;;;16.50;81.10;;;;;;5033203;28;20029;-60
2021/05/25 02:03:33;;;;;;;5.97;3.13;;;16.40;81.30;;;;;;5015565;28;20118;-52
2021/05/25 02:05:59;;;;;;;5.50;3.30;;;16.50;81.40;;;;;;5033402;28;20029;-60
2021/05/25 02:08:26;;;;;;;5.25;3.30;;;16.40;81.30;;;;;;5033141;28;20440;-60
2021/05/25 02:10:57;;;;;;;3.83;2.35;;;16.40;81.60;;;;;;4998751;28;20199;-63
2021/05/25 02:13:34;;;;;;;5.25;2.80;;;16.30;81.60;;;;;;5033363;28;20148;-60
2021/05/25 02:16:09;;;;;;;3.80;2.67;;;16.30;81.70;;;;;;5032886;28;20022;-59
2021/05/25 02:18:42;;;;;;;3.55;2.80;;;16.30;81.90;;;;;;5032389;28;20136;-60
2021/05/25 02:21:10;;;;;;;5.30;2.85;;;16.30;82.20;;;;;;5015318;28;20080;-59
2021/05/25 02:23:36;;;;;;;4.38;2.53;;;16.30;82.20;;;;;;5032913;28;20033;-58
2021/05/25 02:26:03;;;;;;;3.88;2.78;;;16.30;82.20;;;;;;4998502;28;20121;-59
2021/05/25 02:28:29;;;;;;;5.45;2.45;;;16.40;82.30;;;;;;5032586;28;20026;-60
2021/05/25 02:30:55;;;;;;;4.05;2.30;;;16.40;82.10;;;;;;5032382;28;20533;-60
2021/05/25 02:33:23;;;;;;;3.45;2.65;;;16.30;82.30;;;;;;5032637;28;20059;-60
2021/05/25 02:35:51;;;;;;;3.40;2.50;;;16.40;82.40;;;;;;5032039;28;20477;-60
2021/05/25 02:38:18;;;;;;;2.40;1.90;;;16.30;82.60;;;;;;5032417;28;20091;-60
2021/05/25 02:40:46;;;;;;;4.45;2.20;;;16.30;82.50;;;;;;5032127;28;20025;-60
2021/05/25 02:43:17;;;;;;;2.58;2.20;;;16.20;82.60;;;;;;5032678;28;20029;-60
2021/05/25 02:45:43;;;;;;;3.25;2.30;;;16.10;83.20;;;;;;5010462;28;20046;-60
2021/05/25 02:48:09;;;;;;;5.55;2.58;;;16.10;83.10;;;;;;5012599;28;20038;-59
2021/05/25 02:50:36;;;;;;;3.22;2.35;;;16.10;82.70;;;;;;5011037;28;20061;-60
2021/05/25 02:53:02;;;;;;;3.72;2.42;;;16.00;82.90;;;;;;5011592;28;20030;-60
2021/05/25 02:55:32;;;;;;;3.20;2.33;;;15.90;82.70;;;;;;5011528;28;20026;-60
2021/05/25 02:57:58;;;;;;;3.47;2.50;;;15.90;82.80;;;;;;5012590;28;20100;-60
2021/05/25 03:00:30;;;;;;;4.63;2.60;;;15.80;82.40;;;;;;5027872;28;20034;-61
2021/05/25 03:02:56;;;;;;;3.75;2.70;;;15.80;82.30;;;;;;5010589;28;20025;-61
2021/05/25 03:05:24;;;;;;;3.75;2.42;;;15.80;82.20;;;;;;5011108;28;20041;-64
2021/05/25 03:07:54;;;;;;;3.95;2.60;;;15.80;82.00;;;;;;5011064;28;20030;-60
2021/05/25 03:10:27;;;;;;;3.28;2.65;;;15.70;82.20;;;;;;5010281;28;20460;-60
2021/05/25 03:12:53;;;;;;;3.30;2.20;;;15.80;82.10;;;;;;5011299;28;20603;-54
2021/05/25 03:15:26;;;;;;;2.85;2.30;;;15.80;81.40;;;;;;5012204;28;20447;-61
2021/05/25 03:17:52;;;;;;;3.72;2.40;;;15.80;81.10;;;;;;5011144;28;20141;-60
2021/05/25 03:20:19;;;;;;;5.80;2.03;;;15.70;81.20;;;;;;5011812;28;20488;-59
2021/05/25 03:22:44;;;;;;;4.43;1.98;;;15.80;81.00;;;;;;5011722;28;20030;-61
2021/05/25 03:25:11;;;;;;;3.75;2.30;;;15.80;80.80;;;;;;5012280;28;20080;-60
2021/05/25 03:27:38;;;;;;;2.42;2.05;;;15.80;80.50;;;;;;5008290;28;20117;-59
2021/05/25 03:30:06;;;;;;;4.47;1.88;;;15.70;80.20;;;;;;5011912;28;20465;-58
2021/05/25 03:32:32;;;;;;;2.65;1.60;;;15.70;80.50;;;;;;5011036;28;20457;-59
2021/05/25 03:34:58;;;;;;;2.50;1.50;;;15.70;80.40;;;;;;5011543;28;20026;-60
2021/05/25 03:37:23;;;;;;;1.65;1.40;;;15.80;80.00;;;;;;5010492;28;20065;-58
2021/05/25 03:39:49;;;;;;;2.30;1.50;;;15.90;79.70;;;;;;5027069;28;20146;-60
2021/05/25 03:42:15;;;;;;;4.45;1.40;;;15.90;79.00;;;;;;5012247;28;20333;-61
2021/05/25 03:44:41;;;;;;;2.90;1.60;;;15.80;78.70;;;;;;5011726;28;20033;-60
2021/05/25 03:47:06;;;;;;;2.35;1.10;;;15.90;78.40;;;;;;5029835;28;20045;-60
2021/05/25 03:49:32;;;;;;;2.63;1.20;;;15.80;78.20;;;;;;5031913;28;20026;-59
2021/05/25 03:51:57;;;;;;;3.50;1.15;;;15.80;77.70;;;;;;5031126;28;20022;-60
2021/05/25 03:54:29;;;;;;;2.38;1.58;;;15.70;77.90;;;;;;5014401;28;20383;-60
2021/05/25 03:56:58;;;;;;;2.92;1.17;;;15.70;78.00;;;;;;5031439;28;20040;-61
2021/05/25 03:59:24;;;;;;;1.58;1.20;;;15.70;77.80;;;;;;5014220;28;20040;-60
2021/05/25 04:01:52;;;;;;;3.63;1.10;;;15.70;77.90;;;;;;5030961;28;20026;-60
2021/05/25 04:04:18;;;;;;;2.10;1.30;;;15.70;76.80;;;;;;5031819;28;20033;-60
2021/05/25 04:07:03;;;;;;;2.88;1.30;;;15.70;76.90;;;;;;5013571;28;20041;-62
2021/05/25 04:09:28;;;;;;;2.33;1.02;;;15.80;76.80;;;;;;5031638;28;20104;-59
2021/05/25 04:17:05;;;;;;;2.10;1.00;;;15.80;75.90;;;;;;2965990;22;20777;-50
2021/05/25 04:19:31;;;;;;;1.92;1.08;;;15.90;75.70;;;;;;5041465;28;20044;-56
2021/05/25 04:21:57;;;;;;;2.78;1.10;;;16.00;75.20;;;;;;5048543;28;20033;-61
2021/05/25 04:24:22;;;;;;;2.35;1.20;;;16.00;74.90;;;;;;5050538;28;20493;-62
2021/05/25 04:26:48;;;;;;;2.35;1.25;;;15.90;74.80;;;;;;5036477;28;20072;-61
2021/05/25 04:29:14;;;;;;;1.40;1.20;;;16.00;74.00;;;;;;5029138;28;20394;-63
2021/05/25 04:31:39;;;;;;;1.50;1.20;;;15.90;74.20;;;;;;5043032;28;20021;-62
2021/05/25 04:34:05;;;;;;;2.05;1.00;;;15.90;74.00;;;;;;5046877;28;20076;-62
2021/05/25 04:36:31;;;;;;;2.88;1.15;;;15.90;73.80;;;;;;5030742;28;20630;-61
2021/05/25 04:38:57;;;;;;;2.30;1.25;;;15.90;73.80;;;;;;5030742;28;20036;-59
2021/05/25 04:41:22;;;;;;;2.47;1.27;;;15.90;73.70;;;;;;5043139;28;20108;-60
2021/05/25 04:43:48;;;;;;;2.25;1.23;;;16.00;73.40;;;;;;5041060;28;20033;-60
2021/05/25 04:46:14;;;;;;;1.80;1.10;;;16.00;73.10;;;;;;5055012;28;20462;-59
2021/05/25 04:48:40;;;;;;;1.55;0.90;;;15.90;73.10;;;;;;5060494;28;20158;-60
2021/05/25 04:51:06;;;;;;;2.15;1.10;;;15.80;73.10;;;;;;5033130;28;20022;-58
2021/05/25 04:53:32;;;;;;;3.92;1.65;;;15.80;73.50;;;;;;5034359;28;20037;-59
2021/05/25 04:55:59;;;;;;;1.30;0.90;;;15.90;73.30;;;;;;5049313;28;20045;-59
2021/05/25 04:58:25;;;;;;;4.35;1.15;;;15.80;73.30;;;;;;5038111;28;20025;-59
2021/05/25 05:00:50;;;;;;;3.05;1.45;;;15.90;73.60;;;;;;5057632;28;20383;-59
2021/05/25 05:03:16;;;;;;;1.80;1.10;;;15.80;73.80;;;;;;5052688;28;20029;-59
2021/05/25 05:05:42;;;;;;;2.05;0.82;;;15.80;74.00;;;;;;5034093;28;20018;-60
2021/05/25 05:08:08;;;;;;;4.75;1.30;;;15.70;74.20;;;;;;5049759;28;20086;-59
2021/05/25 05:10:34;;;;;;;4.25;1.25;;;15.70;74.60;;;;;;5032282;28;20033;-59
2021/05/25 05:13:02;;;;;;;2.53;1.42;;;15.70;74.60;;;;;;5036937;28;20025;-61
2021/05/25 05:15:29;;;;;;;3.47;1.63;;;15.70;74.60;;;;;;5033275;28;20033;-61
2021/05/25 05:17:55;;;;;;;2.70;1.20;;;15.70;74.60;;;;;;5032892;28;20084;-60
2021/05/25 05:20:21;;;;;;;5.07;1.40;;;15.70;75.00;;;;;;5031959;28;20431;-60
2021/05/25 05:22:47;;;;;;;5.43;1.75;;;15.70;74.90;;;;;;5033725;28;20391;-61
2021/05/25 05:25:13;;;;;;;3.78;1.67;;;15.70;75.10;;;;;;5034045;28;20036;-61
2021/05/25 05:27:40;;;;;;;2.20;1.60;;;15.80;75.40;;;;;;5032015;28;20033;-61
2021/05/25 05:30:07;;;;;;;2.67;1.42;;;15.70;75.30;;;;;;5033303;28;20030;-55
2021/05/25 05:32:33;;;;;;;4.65;1.88;;;15.70;75.10;;;;;;5042936;28;20064;-61
2021/05/25 05:34:58;;;;;;;4.88;1.80;;;15.70;75.40;;;;;;5048731;28;20033;-61
2021/05/25 05:37:24;;;;;;;5.63;2.10;;;15.70;75.60;;;;;;5044088;28;20801;-62
2021/05/25 05:39:50;;;;;;;4.75;1.83;;;15.70;75.80;;;;;;5033022;28;20034;-61
2021/05/25 05:42:16;;;;;;;3.95;2.05;;;15.70;76.00;;;;;;5033067;28;20025;-62
2021/05/25 05:44:44;;;;;;;5.68;2.30;;;15.60;76.10;;;;;;5033509;28;20033;-62
2021/05/25 05:47:10;;;;;;;6.90;2.20;;;15.70;76.30;;;;;;5032752;28;20117;-54
2021/05/25 05:49:37;;;;;;;2.78;2.05;;;15.60;76.10;;;;;;5032467;28;20431;-61
2021/05/25 05:52:03;;;;;;;5.32;2.15;;;15.70;76.10;;;;;;5033580;28;20034;-60
2021/05/25 05:54:28;;;;;;;5.53;1.75;;;15.80;75.90;;;;;;5031454;28;20238;-62
2021/05/25 05:56:54;;;;;;;4.10;1.90;;;15.90;75.50;;;;;;5015812;28;20029;-63
2021/05/25 05:59:20;;;;;;;4.78;1.63;;;15.90;75.30;;;;;;5032629;28;20060;-63
2021/05/25 06:01:46;;;;;;;2.90;1.60;;;15.80;75.20;;;;;;5033168;28;20159;-62
2021/05/25 06:04:12;;;;;;;6.97;3.33;;;15.80;75.20;;;;;;5031902;28;20033;-60
2021/05/25 06:06:38;;;;;;;3.08;1.83;;;15.90;75.10;;;;;;5032397;28;20481;-62
2021/05/25 06:09:05;;;;;;;4.47;1.70;;;15.90;74.10;;;;;;5031629;28;20459;-62
2021/05/25 06:11:30;;;;;;;2.17;1.13;;;15.90;73.60;;;;;;5032288;28;20028;-62
2021/05/25 06:13:57;;;;;;;4.25;1.70;;;15.80;74.00;;;;;;5032093;28;20021;-62
2021/05/25 06:16:23;;;;;;;2.08;1.27;;;15.80;73.90;;;;;;5032131;28;20036;-62
2021/05/25 06:18:49;;;;;;;2.97;1.63;;;15.90;73.10;;;;;;5015001;28;20053;-60
2021/05/25 06:21:15;;;;;;;3.22;1.42;;;15.90;72.40;;;;;;5032138;28;20033;-61
2021/05/25 06:23:41;;;;;;;5.78;1.30;;;15.90;72.60;;;;;;5033473;28;20035;-62
2021/05/25 06:26:07;;;;;;;2.47;1.10;;;15.90;72.30;;;;;;5031951;28;20117;-61
2021/05/25 06:28:33;;;;;;;3.25;1.25;;;15.90;71.50;;;;;;5032309;28;20549;-63
2021/05/25 06:30:59;;;;;;;3.53;1.40;;;16.00;71.30;;;;;;5032858;28;20071;-64
2021/05/25 06:33:26;;;;;;;1.95;1.10;;;16.10;70.90;;;;;;5038401;28;20107;-62
2021/05/25 06:35:52;;;;;;;2.95;1.23;;;16.10;70.20;;;;;;5038764;28;20057;-62
2021/05/25 06:38:18;;;;;;;1.75;0.90;;;16.20;69.20;;;;;;5043238;28;20497;-63
2021/05/25 06:40:44;;;;;;;2.05;1.20;;;16.30;68.50;;;;;;5044222;28;20066;-59
2021/05/25 06:43:10;;;;;;;3.20;1.50;;;16.40;67.70;;;;;;5043696;28;20025;-54
2021/05/25 06:45:37;;;;;;;5.45;1.15;;;16.70;66.30;;;;;;5037193;28;20491;-64
2021/05/25 06:48:03;;;;;;;3.53;1.20;;;16.90;65.20;;;;;;5037718;28;20056;-64
2021/05/25 06:50:29;;;;;;;2.97;1.30;;;16.90;65.00;;;;;;5037952;28;20029;-65
2021/05/25 06:52:55;;;;;;;5.30;1.20;;;16.90;64.40;;;;;;5030764;28;20029;-63
2021/05/25 06:55:21;;;;;;;2.85;1.63;;;16.80;63.70;;;;;;5032586;28;20452;-63
2021/05/25 06:57:48;;;;;;;6.20;1.20;;;16.70;64.10;;;;;;5042395;28;20041;-57
2021/05/25 07:00:15;;;;;;;5.93;1.42;;;16.70;63.70;;;;;;5036065;28;20043;-58
2021/05/25 07:02:41;;;;;;;5.22;1.13;;;16.70;63.40;;;;;;5045184;28;20471;-61
2021/05/25 07:05:08;;;;;;;2.67;1.30;;;16.80;62.40;;;;;;5041212;28;20120;-62
2021/05/25 07:07:34;;;;;;;3.50;1.30;;;16.80;62.40;;;;;;5036753;28;20466;-63
2021/05/25 07:10:00;;;;;;;2.55;1.10;;;17.00;61.20;;;;;;5031728;28;20464;-64
2021/05/25 07:12:27;;;;;;;4.55;1.10;;;17.10;61.20;;;;;;5049194;28;20056;-65
2021/05/25 07:14:53;;;;;;;6.40;1.30;;;17.20;60.00;;;;;;5041178;28;20033;-63
2021/05/25 07:17:19;;;;;;;5.55;0.90;;;17.40;59.70;;;;;;5031470;28;20132;-63
2021/05/25 07:19:46;;;;;;;3.53;1.30;;;17.50;57.20;;;;;;5034271;28;20506;-61
2021/05/25 07:22:13;;;;;;;4.00;1.20;;;17.30;57.80;;;;;;5032308;28;20061;-62
2021/05/25 07:24:39;;;;;;;7.22;3.78;;;17.20;57.60;;;;;;5030145;28;20033;-63
2021/05/25 07:27:05;;;;;;;7.75;1.70;;;17.20;57.80;;;;;;5039543;28;20042;-62
2021/05/25 07:29:31;;;;;;;3.60;1.20;;;17.20;57.60;;;;;;5031170;28;20100;-62
2021/05/25 07:31:56;;;;;;;4.22;1.30;;;17.20;57.30;;;;;;5033828;28;20057;-61
2021/05/25 07:34:23;;;;;;;4.22;1.60;;;17.10;57.80;;;;;;5034904;28;20440;-63
2021/05/25 07:36:49;;;;;;;3.42;1.20;;;17.00;58.10;;;;;;5049598;28;20048;-63
2021/05/25 07:39:16;;;;;;;4.45;1.88;;;16.90;58.40;;;;;;5040052;28;20029;-54
2021/05/25 07:41:43;;;;;;;2.63;1.10;;;16.80;58.60;;;;;;5041875;28;20036;-63
2021/05/25 07:44:09;;;;;;;3.35;1.20;;;16.60;59.30;;;;;;5067707;28;20164;-64
2021/05/25 07:46:35;;;;;;;3.25;1.20;;;16.60;59.60;;;;;;5052244;28;20024;-61
2021/05/25 07:49:00;;;;;;;7.65;2.65;;;16.80;59.20;;;;;;5049996;28;20021;-62
2021/05/25 07:51:27;;;;;;;4.38;1.40;;;16.90;59.10;;;;;;5041215;28;20040;-60
2021/05/25 07:53:53;;;;;;;4.70;1.77;;;17.30;58.30;;;;;;5036467;28;20033;-60
2021/05/25 07:56:19;;;;;;;5.68;1.40;;;18.10;57.40;;;;;;5038794;28;20025;-60
2021/05/25 07:58:45;;;;;;;2.33;1.20;;;18.50;54.60;;;;;;5038560;28;20707;-60
2021/05/25 08:01:10;;;;;;;2.30;1.10;;;18.70;53.20;;;;;;5036638;28;20394;-61
2021/05/25 08:03:37;;;;;;;3.90;1.13;;;18.80;52.40;;;;;;5035601;28;20037;-60
2021/05/25 08:06:03;;;;;;;4.70;1.45;;;18.80;52.10;;;;;;5038730;28;20104;-63
2021/05/25 08:08:30;;;;;;;2.47;1.33;;;18.60;52.50;;;;;;5042225;28;20387;-61
2021/05/25 08:11:00;;;;;;;3.35;1.40;;;18.10;53.10;;;;;;5037958;28;20040;-55
2021/05/25 08:13:27;;;;;;;4.05;1.50;;;18.00;53.80;;;;;;5042477;28;20036;-62
2021/05/25 08:15:54;;;;;;;4.25;1.67;;;19.00;51.90;;;;;;5037785;28;20025;-62
2021/05/25 08:18:41;;;;;;;2.17;1.33;;;20.30;49.10;;;;;;5035813;28;20164;-62
2021/05/25 08:21:07;;;;;;;5.25;1.45;;;20.70;47.30;;;;;;5039165;28;20056;-59
2021/05/25 08:23:33;;;;;;;3.97;1.20;;;20.60;46.90;;;;;;5035708;28;20072;-61
2021/05/25 08:26:03;;;;;;;19.98;2.47;;;20.40;46.70;;;;;;5038260;28;20444;-62
2021/05/25 08:28:29;;;;;;;3.35;1.23;;;20.20;46.90;;;;;;5040882;28;20033;-62
2021/05/25 08:30:55;;;;;;;2.58;1.20;;;19.50;46.20;;;;;;5047483;28;20029;-62
2021/05/25 08:33:22;;;;;;;4.97;1.30;;;19.10;47.60;;;;;;5040119;28;20040;-56
2021/05/25 08:35:49;;;;;;;8.68;1.30;;;19.10;48.20;;;;;;5042895;28;20767;-61
2021/05/25 08:38:16;;;;;;;3.47;1.30;;;19.10;48.20;;;;;;5043612;28;20057;-63
2021/05/25 08:40:43;;;;;;;6.20;1.55;;;19.40;48.10;;;;;;5041926;28;20116;-61
2021/05/25 08:43:10;;;;;;;6.07;1.70;;;19.50;47.80;;;;;;5044953;28;20033;-63
2021/05/25 08:45:36;;;;;;;3.38;1.38;;;19.50;47.60;;;;;;5039896;28;20035;-62
2021/05/25 08:48:03;;;;;;;4.50;1.30;;;19.90;46.90;;;;;;5041774;28;20064;-61
2021/05/25 08:50:29;;;;;;;1.52;1.00;;;19.70;46.50;;;;;;5043794;28;20348;-61
2021/05/25 08:53:03;;;;;;;3.30;1.20;;;19.60;47.20;;;;;;5028096;28;20044;-62
2021/05/25 08:55:32;;;;;;;3.88;1.20;;;19.60;46.40;;;;;;5043230;28;20025;-62
2021/05/25 08:58:00;;;;;;;3.10;1.20;;;19.30;46.90;;;;;;5041638;28;20479;-63
2021/05/25 09:00:26;;;;;;;3.50;1.35;;;19.10;47.60;;;;;;5041805;28;20372;-63
2021/05/25 09:02:53;;;;;;;3.72;1.23;;;19.10;47.50;;;;;;5027118;28;20032;-62
2021/05/25 09:05:21;;;;;;;5.40;1.30;;;18.70;47.80;;;;;;5045065;28;20047;-63
2021/05/25 09:07:51;;;;;;;4.43;1.33;;;18.40;49.00;;;;;;5040012;28;20044;-61
2021/05/25 09:13:01;;;;;;;5.70;1.30;;;18.40;48.90;;;;;;5041873;28;20033;-61
2021/05/25 09:15:40;;;;;;;2.45;0.93;;;18.30;49.10;;;;;;5046415;28;20060;-64
2021/05/25 09:18:07;;;;;;;4.60;1.40;;;18.40;48.10;;;;;;5043454;28;20094;-64
2021/05/25 09:20:39;;;;;;;5.85;1.30;;;18.40;48.50;;;;;;5042857;28;20100;-62
2021/05/25 09:23:05;;;;;;;5.15;1.20;;;18.50;47.70;;;;;;5049038;28;20033;-63
2021/05/25 09:25:32;;;;;;;3.45;1.65;;;18.60;46.90;;;;;;5051998;28;20044;-63
2021/05/25 09:28:03;;;;;;;4.55;1.30;;;18.80;46.60;;;;;;5054005;28;20036;-63
2021/05/25 09:30:32;;;;;;;4.68;1.63;;;18.90;45.20;;;;;;5052786;28;20178;-62
2021/05/25 09:33:02;;;;;;;5.10;1.35;;;19.00;44.60;;;;;;5053511;28;20495;-63
2021/05/25 09:35:34;;;;;;;5.07;1.35;;;19.40;44.00;;;;;;5047065;28;20028;-65
2021/05/25 09:38:07;;;;;;;8.10;1.50;;;19.80;42.80;;;;;;5046766;28;20044;-63
2021/05/25 09:40:34;;;;;;;15.43;1.70;;;19.80;43.00;;;;;;5044304;28;20033;-61
2021/05/25 09:43:23;;;;;;;36.33;3.60;;;19.70;42.00;;;;;;5044500;28;20120;-62
2021/05/25 09:45:55;;;;;;;7.05;1.25;;;19.10;43.70;;;;;;5043553;28;20471;-62
2021/05/25 09:48:48;;;;;;;4.88;1.33;;;19.10;42.90;;;;;;5043523;28;20033;-61
2021/05/25 09:51:34;;;;;;;;;;;19.00;42.20;;;;;;5044070;28;20032;-64
2021/05/25 09:57:02;;;;;;;5.85;1.58;;;18.50;44.10;;;;;;5044396;28;20120;-63
2021/05/25 09:59:36;;;;;;;6.63;1.45;;;18.30;43.90;;;;;;5040652;28;20024;-62
2021/05/25 10:02:20;;;;;;;6.70;1.58;;;18.00;44.50;;;;;;5046004;28;20048;-62
2021/05/25 10:05:03;;;;;;;3.90;1.20;;;17.80;44.70;;;;;;5044411;28;20059;-61
2021/05/25 10:07:29;;;;;;;5.10;1.60;;;17.70;45.80;;;;;;5039783;28;20036;-62
2021/05/25 10:09:57;;;;;;;6.78;1.52;;;17.60;45.90;;;;;;5044043;28;20028;-63
2021/05/25 10:12:27;;;;;;;5.30;1.50;;;17.60;45.60;;;;;;5045725;28;20113;-52
2021/05/25 10:14:52;;;;;;;2.47;1.00;;;17.50;45.50;;;;;;5041948;28;20100;-63
2021/05/25 10:17:32;;;;;;;7.18;1.88;;;17.40;45.80;;;;;;5044511;28;20188;-61
2021/05/25 10:19:59;;;;;;;6.00;1.60;;;17.40;45.60;;;;;;5048572;28;20040;-61
2021/05/25 10:22:25;;;;;;;4.07;1.67;;;17.30;46.10;;;;;;5041488;28;20465;-53
2021/05/25 10:24:52;;;;;;;5.75;1.60;;;17.30;45.70;;;;;;5040534;28;20056;-64
2021/05/25 10:27:19;;;;;;;9.07;1.52;;;17.50;45.80;;;;;;5040654;28;20079;-63
2021/05/25 10:29:44;;;;;;;8.00;2.30;;;17.50;45.80;;;;;;5040050;28;20264;-60
2021/05/25 10:32:23;;;;;;;8.63;1.60;;;17.70;45.60;;;;;;5041539;28;20071;-63
2021/05/25 10:34:53;;;;;;;4.72;1.13;;;17.70;45.30;;;;;;5044177;28;20029;-63
2021/05/25 10:37:21;;;;;;;5.70;2.42;;;17.70;46.40;;;;;;5041769;28;20026;-61
2021/05/25 10:39:55;;;;;;;7.47;1.63;;;17.50;47.20;;;;;;5037640;28;20044;-62
2021/05/25 10:42:24;;;;;;;4.25;1.25;;;17.70;46.20;;;;;;5040499;28;20071;-62
2021/05/25 10:45:01;;;;;;;8.10;1.50;;;17.60;45.90;;;;;;5040436;28;20078;-64
2021/05/25 10:47:42;;;;;;;9.98;1.60;;;17.50;45.00;;;;;;5038601;28;20108;-64
2021/05/25 10:50:24;;;;;;;10.73;1.70;;;17.70;45.20;;;;;;5041848;28;20055;-62
2021/05/25 10:52:53;;;;;;;5.18;1.25;;;18.00;44.50;;;;;;5040986;28;20024;-63
2021/05/25 10:55:52;;;;;;;7.63;1.92;;;17.80;43.50;;;;;;5039519;28;20025;-62
2021/05/25 10:58:18;;;;;;;6.40;1.50;;;18.00;43.90;;;;;;4991180;28;20060;-63
2021/05/25 11:00:45;;;;;;;4.80;1.70;;;18.10;43.70;;;;;;5046927;28;20029;-61
2021/05/25 11:03:14;;;;;;;4.35;2.13;;;18.20;43.00;;;;;;5045966;28;20111;-63
2021/05/25 11:05:49;;;;;;;5.60;2.08;;;18.30;43.60;;;;;;5038122;28;20021;-63
2021/05/25 11:08:17;;;;;;;4.50;1.70;;;18.30;43.50;;;;;;5040827;28;20117;-63
2021/05/25 11:11:00;;;;;;;4.75;1.40;;;18.30;42.80;;;;;;5033251;28;20196;-63
2021/05/25 11:13:57;;;;;;;3.80;1.50;;;18.00;43.60;;;;;;5032603;28;20026;-53
2021/05/25 11:16:33;;;;;;;6.72;1.77;;;18.10;43.30;;;;;;5036398;28;20095;-63
2021/05/25 11:19:33;;;;;;;5.30;1.58;;;18.40;42.70;;;;;;5050111;28;20044;-63
2021/05/25 11:22:15;;;;;;;9.45;2.05;;;18.40;42.40;;;;;;5051436;28;20017;-64
2021/05/25 11:25:03;;;;;;;4.15;1.98;;;18.20;41.90;;;;;;5049986;28;20029;-62
2021/05/25 11:27:46;;;;;;;5.60;1.40;;;18.00;41.70;;;;;;5042050;28;20047;-61
2021/05/25 11:30:32;;;;;;;3.80;1.50;;;17.90;41.80;;;;;;5041787;28;20525;-63
2021/05/25 11:33:03;;;;;;;6.45;1.42;;;17.90;41.90;;;;;;5044643;28;20021;-63
2021/05/25 11:35:31;;;;;;;5.88;1.27;;;17.80;41.60;;;;;;5034229;28;20028;-62
2021/05/25 11:38:00;;;;;;;6.25;1.50;;;17.50;41.80;;;;;;5039716;28;20034;-63
2021/05/25 11:40:32;;;;;;;4.95;1.50;;;17.30;42.50;;;;;;5048535;28;20029;-57
2021/05/25 11:42:59;;;;;;;5.82;1.70;;;17.10;43.30;;;;;;5040954;28;20017;-61
2021/05/25 11:45:30;;;;;;;6.93;1.70;;;17.10;43.40;;;;;;5048386;28;20036;-60
2021/05/25 11:48:04;;;;;;;4.88;1.50;;;17.10;43.50;;;;;;5040897;28;20026;-63
2021/05/25 11:50:47;;;;;;;6.85;1.80;;;16.90;44.20;;;;;;5037705;28;20034;-64
2021/05/25 11:53:21;;;;;;;4.75;1.33;;;16.80;44.70;;;;;;5035404;28;20034;-63
2021/05/25 11:55:46;;;;;;;;;;;16.70;44.60;;;;;;5044843;28;20072;-62
2021/05/25 11:58:12;;;;;;;5.95;1.45;;;16.90;44.70;;;;;;5045093;28;19963;-62
2021/05/25 12:00:40;;;;;;;6.63;1.52;;;17.00;44.60;;;;;;5054594;28;20132;-63
2021/05/25 12:03:10;;;;;;;9.52;1.90;;;17.10;44.60;;;;;;5045354;28;20045;-62
2021/05/25 12:05:36;;;;;;;5.43;1.67;;;17.00;44.40;;;;;;5045027;28;20035;-62
2021/05/25 12:08:06;;;;;;;5.28;1.90;;;16.90;44.60;;;;;;5044211;28;20112;-62
2021/05/25 12:10:42;;;;;;;6.45;1.63;;;16.80;45.10;;;;;;5048108;28;20017;-62
2021/05/25 12:13:12;;;;;;;6.43;1.88;;;16.70;45.90;;;;;;5029920;28;20119;-63
2021/05/25 12:15:44;;;;;;;3.85;1.42;;;16.80;46.00;;;;;;5045902;28;20021;-63
2021/05/25 12:18:11;;;;;;;5.45;1.65;;;17.20;45.90;;;;;;5052451;28;20143;-61
2021/05/25 12:20:39;;;;;;;7.18;2.40;;;17.20;45.30;;;;;;5050798;28;20021;-61
2021/05/25 12:23:12;;;;;;;8.95;1.80;;;17.30;45.90;;;;;;5043663;28;20128;-62
2021/05/25 12:25:39;;;;;;;5.30;2.53;;;17.40;45.50;;;;;;5045544;28;20017;-65
2021/05/25 12:28:12;;;;;;;4.38;1.73;;;17.40;45.10;;;;;;5049949;28;20115;-63
2021/05/25 12:30:58;;;;;;;4.27;1.83;;;17.40;45.00;;;;;;5046849;28;20059;-64
2021/05/25 12:33:32;;;;;;;4.93;1.58;;;17.30;44.60;;;;;;5047597;28;20364;-64
2021/05/25 12:36:30;;;;;;;4.15;1.75;;;17.40;44.80;;;;;;5052499;28;20021;-64
2021/05/25 12:39:31;;;;;;;4.47;1.63;;;17.50;44.30;;;;;;5047336;28;20057;-56
2021/05/25 12:41:57;;;;;;;4.82;1.60;;;17.70;43.50;;;;;;5041742;28;20502;-61
2021/05/25 12:44:31;;;;;;;3.55;1.33;;;17.60;43.80;;;;;;5041957;28;20029;-60
2021/05/25 12:47:00;;;;;;;4.45;1.75;;;17.60;43.70;;;;;;5049404;28;20059;-63
2021/05/25 12:49:35;;;;;;;6.70;1.85;;;17.60;43.70;;;;;;5044849;28;20498;-60
2021/05/25 12:52:27;;;;;;;4.40;1.27;;;17.50;43.80;;;;;;5053251;28;20051;-62
2021/05/25 12:55:03;;;;;;;5.38;1.50;;;17.40;43.70;;;;;;5052134;28;20075;-64
2021/05/25 12:57:43;;;;;;;4.70;1.67;;;17.30;43.70;;;;;;5053983;28;20044;-48
2021/05/25 13:00:10;;;;;;;3.20;1.33;;;17.50;43.70;;;;;;5047229;28;20184;-62
2021/05/25 13:02:47;;;;;;;5.57;2.05;;;17.60;43.10;;;;;;5038925;28;20071;-63
2021/05/25 13:05:14;;;;;;;6.70;2.08;;;17.60;43.20;;;;;;5040032;28;20091;-64
2021/05/25 13:07:48;;;;;;;7.70;1.33;;;17.80;43.00;;;;;;5048391;28;20083;-63